createdAt,value
2019-04-11T00:02:14.387Z,2.90
2019-04-11T00:05:21.041Z,3.10
2019-04-11T00:08:28.053Z,2.73
2019-04-11T00:11:35.776Z,3.00
2019-04-11T00:14:42.305Z,3.08
2019-04-11T00:17:48.725Z,3.00
2019-04-11T00:20:56.072Z,2.73
2019-04-11T00:24:02.868Z,3.00
2019-04-11T00:27:09.293Z,3.02
2019-04-11T00:30:16.121Z,3.10
2019-04-11T00:33:23.560Z,2.60
2019-04-11T00:36:30.647Z,2.80
2019-04-11T00:39:37.549Z,2.80
2019-04-11T00:42:45.042Z,2.60
2019-04-11T00:45:51.875Z,2.80
2019-04-11T00:48:59.618Z,2.23
2019-04-11T00:52:06.563Z,2.90
2019-04-11T00:55:13.401Z,2.37
2019-04-11T00:58:19.751Z,2.60
2019-04-11T01:01:26.231Z,2.70
2019-04-11T01:04:32.760Z,2.60
2019-04-11T01:07:39.319Z,3.03
2019-04-11T01:10:45.721Z,2.57
2019-04-11T01:13:55.292Z,2.90
2019-04-11T01:17:01.134Z,2.70
2019-04-11T01:20:08.335Z,2.30
2019-04-11T01:23:16.151Z,2.43
2019-04-11T01:26:23.319Z,2.53
2019-04-11T01:29:29.700Z,2.13
2019-04-11T01:32:36.231Z,2.47
2019-04-11T01:35:43.637Z,2.30
2019-04-11T01:38:53.397Z,2.40
2019-04-11T01:42:00.738Z,2.70
2019-04-11T01:45:09.519Z,2.50
2019-04-11T01:48:27.825Z,2.40
2019-04-11T01:51:35.999Z,2.77
2019-04-11T01:54:42.400Z,2.60
2019-04-11T01:57:49.875Z,2.97
2019-04-11T02:01:14.708Z,2.70
2019-04-11T02:04:34.229Z,2.47
2019-04-11T02:07:40.629Z,2.60
2019-04-11T02:10:47.117Z,2.80
2019-04-11T02:14:05.955Z,3.00
2019-04-11T02:17:02.196Z,2.80
2019-04-11T02:20:09.414Z,2.60
2019-04-11T02:23:30.958Z,2.60
2019-04-11T02:26:37.721Z,2.60
2019-04-11T02:29:44.767Z,2.60
2019-04-11T02:32:53.430Z,2.73
2019-04-11T02:36:00.824Z,2.57
2019-04-11T02:39:16.129Z,2.58
2019-04-11T02:42:19.053Z,2.73
2019-04-11T02:45:39.798Z,2.70
2019-04-11T02:48:35.504Z,2.60
2019-04-11T02:51:43.524Z,2.72
2019-04-11T02:54:52.649Z,2.80
2019-04-11T02:58:01.116Z,2.80
2019-04-11T03:01:09.594Z,2.60
2019-04-11T03:04:16.698Z,2.98
2019-04-11T03:07:24.764Z,2.87
2019-04-11T03:10:33.501Z,2.77
2019-04-11T03:13:39.609Z,3.00
2019-04-11T03:16:57.367Z,2.60
2019-04-11T03:20:08.932Z,2.98
2019-04-11T03:23:07.475Z,2.67
2019-04-11T03:26:12.374Z,3.47
2019-04-11T03:29:19.890Z,3.10
2019-04-11T03:36:28.375Z,2.90
2019-04-11T03:39:07.740Z,2.80
2019-04-11T03:42:12.539Z,3.20
2019-04-11T03:45:23.692Z,3.27
2019-04-11T03:48:23.515Z,2.87
2019-04-11T03:51:18.779Z,2.87
2019-04-11T03:54:25.830Z,3.00
2019-04-11T03:57:34.136Z,3.10
2019-04-11T04:00:43.771Z,3.20
2019-04-11T04:03:49.631Z,2.90
2019-04-11T04:06:57.831Z,3.00
2019-04-11T04:10:09.158Z,2.87
2019-04-11T04:13:16.881Z,2.77
2019-04-11T04:16:45.653Z,2.93
2019-04-11T04:20:12.927Z,3.17
2019-04-11T04:23:22.867Z,3.10
2019-04-11T04:26:29.416Z,2.67
2019-04-11T04:29:37.692Z,3.23
2019-04-11T04:32:45.167Z,2.80
2019-04-11T04:35:52.536Z,3.10
2019-04-11T04:39:01.200Z,2.73
2019-04-11T04:42:19.489Z,2.83
2019-04-11T04:45:19.120Z,3.10
2019-04-11T04:48:27.317Z,2.73
2019-04-11T04:51:35.185Z,2.80
2019-04-11T04:54:41.888Z,3.33
2019-04-11T04:57:48.703Z,2.77
2019-04-11T05:00:57.825Z,3.03
2019-04-11T05:04:04.811Z,2.87
2019-04-11T05:07:11.805Z,3.07
2019-04-11T05:10:18.225Z,3.27
2019-04-11T05:13:24.780Z,3.10
2019-04-11T05:16:31.073Z,2.87
2019-04-11T05:19:38.369Z,3.20
2019-04-11T05:22:44.920Z,3.03
2019-04-11T05:25:51.305Z,3.30
2019-04-11T05:28:57.705Z,3.53
2019-04-11T05:32:05.198Z,3.10
2019-04-11T05:35:11.561Z,3.07
2019-04-11T05:38:18.891Z,3.27
2019-04-11T05:41:26.191Z,3.07
2019-04-11T05:44:35.284Z,3.17
2019-04-11T05:47:41.723Z,3.37
2019-04-11T05:50:51.087Z,3.20
2019-04-11T05:53:57.746Z,3.00
2019-04-11T05:57:05.608Z,3.03
2019-04-11T06:00:17.733Z,4.00
2019-04-11T06:03:24.184Z,2.97
2019-04-11T06:06:46.541Z,3.10
2019-04-11T06:09:57.303Z,3.27
2019-04-11T06:13:18.632Z,2.87
2019-04-11T06:16:36.076Z,2.80
2019-04-11T06:19:50.673Z,3.03
2019-04-11T06:23:10.740Z,2.77
2019-04-11T06:26:39.125Z,3.27
2019-04-11T06:30:03.427Z,3.00
2019-04-11T06:33:32.130Z,2.80
2019-04-11T06:37:10.285Z,2.80
2019-04-11T06:40:26.437Z,2.87
2019-04-11T06:43:48.419Z,2.87
2019-04-11T06:47:05.698Z,2.70
2019-04-11T06:50:33.901Z,2.20
2019-04-11T06:53:44.195Z,2.50
2019-04-11T06:56:52.250Z,3.00
2019-04-11T07:00:00.811Z,3.00
2019-04-11T07:03:17.918Z,2.70
2019-04-11T07:06:19.593Z,2.50
2019-04-11T07:09:39.499Z,2.87
2019-04-11T07:13:05.927Z,2.20
2019-04-11T07:16:13.337Z,2.27
2019-04-11T07:19:48.063Z,2.10
2019-04-11T07:23:13.509Z,2.23
2019-04-11T07:26:41.604Z,2.40
2019-04-11T07:29:56.589Z,2.40
2019-04-11T07:33:21.562Z,2.53
2019-04-11T07:36:55.933Z,2.23
2019-04-11T07:40:24.467Z,2.33
2019-04-11T07:43:33.664Z,3.20
2019-04-11T07:46:53.623Z,2.40
2019-04-11T07:50:02.241Z,2.70
2019-04-11T07:53:08.727Z,2.50
2019-04-11T07:56:30.402Z,3.00
2019-04-11T07:59:55.723Z,3.07
2019-04-11T08:03:10.440Z,2.80
2019-04-11T08:06:34.370Z,3.00
2019-04-11T08:09:45.446Z,2.73
2019-04-11T08:12:51.991Z,2.30
2019-04-11T08:16:26.829Z,3.60
2019-04-11T08:19:51.248Z,2.77
2019-04-11T08:23:01.649Z,2.30
2019-04-11T08:26:22.066Z,2.40
2019-04-11T08:29:28.721Z,2.90
2019-04-11T08:32:58.260Z,2.03
2019-04-11T08:36:29.712Z,2.60
2019-04-11T08:39:39.933Z,2.40
2019-04-11T08:43:06.680Z,2.47
2019-04-11T08:46:16.089Z,2.20
2019-04-11T08:49:31.685Z,2.30
2019-04-11T08:53:00.398Z,2.43
2019-04-11T08:56:07.198Z,2.17
2019-04-11T08:59:33.566Z,2.37
2019-04-11T09:02:42.935Z,2.30
2019-04-11T09:06:02.436Z,2.40
2019-04-11T09:09:25.162Z,2.10
2019-04-11T09:12:31.386Z,1.97
2019-04-11T09:15:57.227Z,2.10
2019-04-11T09:19:10.427Z,1.83
2019-04-11T09:22:35.339Z,2.27
2019-04-11T09:26:03.714Z,2.20
2019-04-11T09:29:10.216Z,1.98
2019-04-11T09:32:42.501Z,2.10
2019-04-11T09:35:51.984Z,2.43
2019-04-11T09:38:59.121Z,2.23
2019-04-11T09:42:23.206Z,2.10
2019-04-11T09:45:52.412Z,2.20
2019-04-11T09:49:33.204Z,2.20
2019-04-11T09:52:43.382Z,2.00
2019-04-11T09:56:22.823Z,2.30
2019-04-11T09:59:35.035Z,2.27
2019-04-11T10:03:00.715Z,2.07
2019-04-11T10:06:30.259Z,1.87
2019-04-11T10:09:52.432Z,1.60
2019-04-11T10:13:35.496Z,1.93
2019-04-11T10:17:00.260Z,1.95
2019-04-11T10:20:10.700Z,2.10
2019-04-11T10:23:34.846Z,2.60
2019-04-11T10:26:44.596Z,1.92
2019-04-11T10:30:17.280Z,2.20
2019-04-11T10:33:41.928Z,2.10
2019-04-11T10:37:07.557Z,1.82
2019-04-11T10:40:41.986Z,3.03
2019-04-11T10:43:49.536Z,2.13
2019-04-11T10:47:08.807Z,1.93
2019-04-11T10:50:34.044Z,1.80
2019-04-11T10:53:41.629Z,1.70
2019-04-11T10:57:22.551Z,1.90
2019-04-11T11:00:33.898Z,1.73
2019-04-11T11:03:47.362Z,1.80
2019-04-11T11:06:57.489Z,3.70
2019-04-11T11:10:09.656Z,1.97
2019-04-11T11:13:34.044Z,1.90
2019-04-11T11:16:56.802Z,1.80
2019-04-11T11:20:34.724Z,1.80
2019-04-11T11:23:54.459Z,2.10
2019-04-11T11:27:03.801Z,1.90
2019-04-11T11:30:31.560Z,1.93
2019-04-11T11:33:38.609Z,2.10
2019-04-11T11:37:25.286Z,2.00
2019-04-11T11:40:58.432Z,1.87
2019-04-11T11:44:05.599Z,2.10
2019-04-11T11:47:33.071Z,2.00
2019-04-11T11:50:39.167Z,2.00
2019-04-11T11:54:02.951Z,1.90
2019-04-11T11:57:14.881Z,2.07
2019-04-11T12:00:25.059Z,1.90
2019-04-11T12:03:57.520Z,1.90
2019-04-11T12:07:06.855Z,2.20
2019-04-11T12:10:32.327Z,2.00
2019-04-11T12:13:56.046Z,1.93
2019-04-11T12:17:20.829Z,1.57
2019-04-11T12:20:44.406Z,1.70
2019-04-11T12:24:11.436Z,1.63
2019-04-11T12:27:37.128Z,1.60
2019-04-11T12:30:50.147Z,1.60
2019-04-11T12:34:18.826Z,1.70
2019-04-11T12:37:31.685Z,1.50
2019-04-11T12:41:12.147Z,1.60
2019-04-11T12:44:49.590Z,1.60
2019-04-11T12:47:58.624Z,1.70
2019-04-11T12:51:35.974Z,1.47
2019-04-11T12:54:43.481Z,1.60
2019-04-11T12:58:07.444Z,1.50
2019-04-11T13:01:36.067Z,1.47
2019-04-11T13:04:45.200Z,1.43
2019-04-11T13:08:09.052Z,1.60
2019-04-11T13:11:16.510Z,1.37
2019-04-11T13:14:40.918Z,1.50
2019-04-11T13:17:54.096Z,1.60
2019-04-11T13:21:05.510Z,1.40
2019-04-11T13:24:33.698Z,1.55
2019-04-11T13:27:46.766Z,1.50
2019-04-11T13:31:21.365Z,1.67
2019-04-11T13:34:27.989Z,1.70
2019-04-11T13:37:53.724Z,1.43
2019-04-11T13:41:20.354Z,1.47
2019-04-11T13:44:31.239Z,1.40
2019-04-11T13:47:59.706Z,1.40
2019-04-11T13:51:11.180Z,1.50
2019-04-11T13:54:43.671Z,1.40
2019-04-11T13:58:12.079Z,1.40
2019-04-11T14:01:18.627Z,1.70
2019-04-11T14:04:30.302Z,1.60
2019-04-11T14:07:36.686Z,1.40
2019-04-11T14:10:49.408Z,1.30
2019-04-11T14:13:55.731Z,1.60
2019-04-11T14:17:11.954Z,1.90
2019-04-11T14:20:37.457Z,1.60
2019-04-11T14:24:12.175Z,1.67
2019-04-11T14:27:24.519Z,1.50
2019-04-11T14:30:46.706Z,1.70
2019-04-11T14:33:57.546Z,1.57
2019-04-11T14:37:37.822Z,1.70
2019-04-11T14:41:01.685Z,1.83
2019-04-11T14:44:03.912Z,1.60
2019-04-11T14:47:29.478Z,1.67
2019-04-11T14:50:51.032Z,1.90
2019-04-11T14:54:06.387Z,1.60
2019-04-11T14:57:30.535Z,1.47
2019-04-11T15:00:39.403Z,1.63
2019-04-11T15:04:03.978Z,1.50
2019-04-11T15:07:12.854Z,1.80
2019-04-11T15:10:40.857Z,1.77
2019-04-11T15:13:50.529Z,1.90
2019-04-11T15:17:14.794Z,1.43
2019-04-11T15:20:54.158Z,1.80
2019-04-11T15:23:53.832Z,1.60
2019-04-11T15:27:25.243Z,1.73
2019-04-11T15:30:32.899Z,1.90
2019-04-11T15:33:59.422Z,1.97
2019-04-11T15:37:40.397Z,1.67
2019-04-11T15:40:50.523Z,1.77
2019-04-11T15:44:16.036Z,1.80
2019-04-11T15:47:22.429Z,1.93
2019-04-11T15:50:51.299Z,2.00
2019-04-11T15:54:24.799Z,1.80
2019-04-11T15:57:44.525Z,1.57
2019-04-11T16:01:14.314Z,1.57
2019-04-11T16:04:38.088Z,1.53
2019-04-11T16:08:08.594Z,1.77
2019-04-11T16:11:37.100Z,2.23
2019-04-11T16:14:48.149Z,1.60
2019-04-11T16:18:18.283Z,1.80
2019-04-11T16:21:39.926Z,1.60
2019-04-11T16:24:47.670Z,1.70
2019-04-11T16:28:26.903Z,1.93
2019-04-11T16:31:40.809Z,1.97
2019-04-11T16:34:55.731Z,2.00
2019-04-11T16:38:05.135Z,1.80
2019-04-11T16:41:29.894Z,1.60
2019-04-11T16:44:54.849Z,1.60
2019-04-11T16:48:04.815Z,1.80
2019-04-11T16:51:11.594Z,1.80
2019-04-11T16:54:18.019Z,1.82
2019-04-11T16:57:24.475Z,1.70
2019-04-11T17:00:31.277Z,1.73
2019-04-11T17:03:37.838Z,1.57
2019-04-11T17:07:02.159Z,1.80
2019-04-11T17:10:09.381Z,1.93
2019-04-11T17:13:15.663Z,2.17
2019-04-11T17:16:22.761Z,1.80
2019-04-11T17:19:29.181Z,1.80
2019-04-11T17:22:35.669Z,1.70
2019-04-11T17:25:42.211Z,1.80
2019-04-11T17:28:48.986Z,1.90
2019-04-11T17:31:56.169Z,1.70
2019-04-11T17:35:03.314Z,1.70
2019-04-11T17:38:09.968Z,1.60
2019-04-11T17:41:16.366Z,1.80
2019-04-11T17:44:22.690Z,1.50
2019-04-11T17:47:29.131Z,1.83
2019-04-11T17:50:35.676Z,2.00
2019-04-11T17:53:42.165Z,1.87
2019-04-11T17:56:48.648Z,2.17
2019-04-11T17:59:56.763Z,1.90
2019-04-11T18:03:03.419Z,1.80
2019-04-11T18:06:10.302Z,2.00
2019-04-11T18:09:16.711Z,1.87
2019-04-11T18:12:23.793Z,1.80
2019-04-11T18:15:32.159Z,1.80
2019-04-11T18:18:38.858Z,1.87
2019-04-11T18:21:45.270Z,2.00
2019-04-11T18:24:51.776Z,2.23
2019-04-11T18:27:58.036Z,2.30
2019-04-11T18:31:05.362Z,1.90
2019-04-11T18:34:13.020Z,2.12
2019-04-11T18:37:19.413Z,1.90
2019-04-11T18:40:25.986Z,2.43
2019-04-11T18:43:33.683Z,2.07
2019-04-11T18:46:40.084Z,2.12
2019-04-11T18:49:46.518Z,2.03
2019-04-11T18:52:52.845Z,1.90
2019-04-11T18:56:01.634Z,1.80
2019-04-11T18:59:16.015Z,1.77
2019-04-11T19:02:27.148Z,2.02
2019-04-11T19:05:54.871Z,2.00
2019-04-11T19:09:19.947Z,2.02
2019-04-11T19:12:43.960Z,2.30
2019-04-11T19:16:04.528Z,2.10
2019-04-11T19:19:19.156Z,1.90
2019-04-11T19:22:37.688Z,2.17
2019-04-11T19:25:53.289Z,2.07
2019-04-11T19:29:24.785Z,2.27
2019-04-11T19:32:39.165Z,2.20
2019-04-11T19:35:47.008Z,1.93
2019-04-11T19:38:53.374Z,2.10
2019-04-11T19:42:08.860Z,2.40
2019-04-11T19:45:12.501Z,2.20
2019-04-11T19:48:18.899Z,2.30
2019-04-11T19:51:28.751Z,2.30
2019-04-11T19:54:33.611Z,2.23
2019-04-11T19:57:39.921Z,2.27
2019-04-11T20:00:47.491Z,2.00
2019-04-11T20:03:55.077Z,2.40
2019-04-11T20:07:01.441Z,2.27
2019-04-11T20:10:13.232Z,2.40
2019-04-11T20:13:21.278Z,2.20
2019-04-11T20:16:27.631Z,2.20
2019-04-11T20:19:34.436Z,2.40
2019-04-11T20:22:58.905Z,2.30
2019-04-11T20:26:19.898Z,2.20
2019-04-11T20:29:35.954Z,2.27
2019-04-11T20:32:42.912Z,2.00
2019-04-11T20:35:49.266Z,2.13
2019-04-11T20:38:55.770Z,2.00
2019-04-11T20:42:14.013Z,2.20
2019-04-11T20:45:32.623Z,2.13
2019-04-11T20:48:41.354Z,2.40
2019-04-11T20:51:48.287Z,1.92
2019-04-11T20:54:54.606Z,2.27
2019-04-11T20:58:01.026Z,2.73
2019-04-11T21:01:07.484Z,2.37
2019-04-11T21:04:13.995Z,2.47
2019-04-11T21:07:20.498Z,2.37
2019-04-11T21:10:27.092Z,2.23
2019-04-11T21:13:33.527Z,2.40
2019-04-11T21:16:40.061Z,2.85
2019-04-11T21:19:47.036Z,2.47
2019-04-11T21:22:54.007Z,2.63
2019-04-11T21:26:01.847Z,2.73
2019-04-11T21:29:08.333Z,2.27
2019-04-11T21:32:14.729Z,2.20
2019-04-11T21:35:21.497Z,2.43
2019-04-11T21:38:30.925Z,2.60
2019-04-11T21:41:36.893Z,2.10
2019-04-11T21:44:43.353Z,2.20
2019-04-11T21:47:49.874Z,2.43
2019-04-11T21:50:56.239Z,2.23
2019-04-11T21:54:02.712Z,2.10
2019-04-11T21:57:09.027Z,2.30
2019-04-11T22:00:22.472Z,1.97
2019-04-11T22:03:30.793Z,2.00
2019-04-11T22:06:37.493Z,2.33
2019-04-11T22:09:43.761Z,2.17
2019-04-11T22:12:50.240Z,2.20
2019-04-11T22:15:56.683Z,2.00
2019-04-11T22:19:03.085Z,2.00
2019-04-11T22:22:09.785Z,2.30
2019-04-11T22:25:16.240Z,2.20
2019-04-11T22:28:24.904Z,2.00
2019-04-11T22:31:30.857Z,2.00
2019-04-11T22:34:44.954Z,2.30
2019-04-11T22:37:51.252Z,2.00
2019-04-11T22:41:01.566Z,2.10
2019-04-11T22:44:07.980Z,2.20
2019-04-11T22:47:14.463Z,2.00
2019-04-11T22:50:20.833Z,2.27
2019-04-11T22:53:27.312Z,2.10
2019-04-11T22:56:33.846Z,1.90
2019-04-11T22:59:44.043Z,2.10
2019-04-11T23:03:06.125Z,2.20
2019-04-11T23:06:14.897Z,1.80
2019-04-11T23:09:21.010Z,2.10
2019-04-11T23:12:27.432Z,1.92
2019-04-11T23:15:33.901Z,1.90
2019-04-11T23:18:41.879Z,1.83
2019-04-11T23:21:48.605Z,1.70
2019-04-11T23:24:55.493Z,1.93
2019-04-11T23:28:02.099Z,1.80
2019-04-11T23:31:08.711Z,1.80
2019-04-11T23:34:15.340Z,2.35
2019-04-11T23:37:21.798Z,2.30
2019-04-11T23:40:28.165Z,2.00
2019-04-11T23:43:34.679Z,2.10
2019-04-11T23:46:41.130Z,2.40
2019-04-11T23:49:47.930Z,2.20
2019-04-11T23:52:56.974Z,2.00
2019-04-11T23:56:02.771Z,1.77
2019-04-11T23:59:09.445Z,1.62
